Time;durP1;ratioP1;P1;durP2;ratioP2;P2;SDS_P1;SDS_P2;PMS_P1;PMS_P2;Temp;Humidity;BMP_temperature;BMP_pressure;BME280_temperature;BME280_humidity;BME280_pressure;Samples;Min_cycle;Max_cycle;Signal;HPM_P1;HPM_P2
2022/04/24 00:01:30;;;;;;;20.02;12.25;;;16.10;57.50;;;;;;5028097;28;20032;-87
2022/04/24 00:03:56;;;;;;;19.45;11.98;;;16.10;57.50;;;;;;5040879;28;20025;-87
2022/04/24 00:06:22;;;;;;;18.55;11.75;;;16.10;57.50;;;;;;5024320;28;20103;-86
2022/04/24 00:08:49;;;;;;;19.00;12.18;;;16.10;57.50;;;;;;5020365;28;20033;-85
2022/04/24 00:11:16;;;;;;;19.05;12.70;;;16.00;57.40;;;;;;5008621;28;20029;-87
2022/04/24 00:13:43;;;;;;;18.05;12.15;;;16.00;57.60;;;;;;5024517;28;20057;-88
2022/04/24 00:16:10;;;;;;;20.27;12.82;;;16.00;57.60;;;;;;5043653;28;20041;-89
2022/04/24 00:18:38;;;;;;;20.58;12.18;;;16.00;57.50;;;;;;5023778;28;20034;-89
2022/04/24 00:21:07;;;;;;;17.63;12.45;;;16.00;57.60;;;;;;5040741;28;20047;-85
2022/04/24 00:23:33;;;;;;;19.85;12.02;;;16.00;57.60;;;;;;5040264;28;20040;-85
2022/04/24 00:25:59;;;;;;;19.73;12.73;;;16.00;57.70;;;;;;5022491;28;20069;-86
2022/04/24 00:28:26;;;;;;;18.02;11.80;;;16.00;57.70;;;;;;5022164;28;21361;-85
2022/04/24 00:30:52;;;;;;;19.80;12.63;;;15.90;57.70;;;;;;5022785;28;20430;-85
2022/04/24 00:33:18;;;;;;;24.00;13.10;;;15.90;57.70;;;;;;5027062;28;20047;-86
2022/04/24 00:35:44;;;;;;;33.35;14.00;;;15.90;58.30;;;;;;5027208;28;20734;-88
2022/04/24 00:38:10;;;;;;;18.65;12.30;;;15.90;57.80;;;;;;5065412;28;20064;-86
2022/04/24 00:40:36;;;;;;;19.48;12.82;;;15.90;57.80;;;;;;5046768;28;20069;-86
2022/04/24 00:43:02;;;;;;;17.48;12.00;;;15.90;57.70;;;;;;5023015;28;20021;-87
2022/04/24 00:45:53;;;;;;;20.35;12.55;;;15.90;57.70;;;;;;5026129;28;20025;-87
2022/04/24 00:48:19;;;;;;;18.35;11.90;;;15.90;57.80;;;;;;5039995;28;20072;-88
2022/04/24 00:50:45;;;;;;;19.20;12.57;;;15.90;57.80;;;;;;5020946;28;21769;-88
2022/04/24 00:53:11;;;;;;;19.40;12.15;;;15.90;57.90;;;;;;5039505;28;20030;-89
2022/04/24 00:55:37;;;;;;;16.65;12.18;;;15.90;57.90;;;;;;5020521;28;20484;-89
2022/04/24 00:58:03;;;;;;;17.58;11.60;;;15.90;57.90;;;;;;5038722;28;20032;-88
2022/04/24 01:00:29;;;;;;;20.17;12.27;;;15.90;57.90;;;;;;5038704;28;20041;-88
2022/04/24 01:02:56;;;;;;;20.38;12.48;;;15.90;58.00;;;;;;5038974;28;20033;-88
2022/04/24 01:05:23;;;;;;;21.73;12.98;;;15.90;58.00;;;;;;5036458;28;20403;-87
2022/04/24 01:07:49;;;;;;;20.02;11.50;;;15.90;58.00;;;;;;5020114;28;20064;-90
2022/04/24 01:10:15;;;;;;;18.63;11.82;;;15.90;58.70;;;;;;5020840;28;20060;-90
2022/04/24 01:12:41;;;;;;;16.08;10.35;;;15.80;58.10;;;;;;5020501;28;20025;-90
2022/04/24 01:15:07;;;;;;;17.50;10.77;;;15.80;58.10;;;;;;5004659;28;20088;-89
2022/04/24 01:17:33;;;;;;;18.40;11.90;;;15.80;58.10;;;;;;5039173;28;20047;-88
2022/04/24 01:20:00;;;;;;;16.40;11.68;;;15.80;58.20;;;;;;5038448;28;20068;-89
2022/04/24 01:22:26;;;;;;;17.50;10.57;;;15.80;58.80;;;;;;5069683;28;20499;-88
2022/04/24 01:24:52;;;;;;;21.80;10.60;;;15.80;58.20;;;;;;5004224;28;20037;-88
2022/04/24 01:27:18;;;;;;;17.83;10.45;;;15.80;58.10;;;;;;5020428;28;20112;-88
2022/04/24 01:29:44;;;;;;;16.60;9.98;;;15.80;58.20;;;;;;5020393;28;20048;-88
2022/04/24 01:32:10;;;;;;;17.73;10.95;;;15.80;58.30;;;;;;5022785;28;20029;-89
2022/04/24 01:34:36;;;;;;;14.27;9.80;;;15.80;58.20;;;;;;5019198;28;20036;-89
2022/04/24 01:37:02;;;;;;;15.65;10.43;;;15.70;58.10;;;;;;5042573;28;20479;-90
2022/04/24 01:39:28;;;;;;;13.80;8.90;;;15.80;58.20;;;;;;5061008;28;20037;-89
2022/04/24 01:41:55;;;;;;;16.92;9.52;;;15.80;58.20;;;;;;5057274;28;20067;-88
2022/04/24 01:44:21;;;;;;;13.30;8.45;;;15.70;58.20;;;;;;5037995;28;20079;-88
2022/04/24 01:46:47;;;;;;;12.00;8.90;;;15.80;58.30;;;;;;5026434;28;20083;-86
2022/04/24 01:49:13;;;;;;;14.13;8.95;;;15.70;58.30;;;;;;5038174;28;20038;-86
2022/04/24 01:51:40;;;;;;;14.30;8.20;;;15.80;58.40;;;;;;5038744;28;20374;-86
2022/04/24 01:54:06;;;;;;;16.73;8.85;;;15.80;58.40;;;;;;5035963;28;20038;-88
2022/04/24 01:56:32;;;;;;;14.50;8.75;;;15.70;58.40;;;;;;5036579;28;20128;-88
2022/04/24 01:58:57;;;;;;;13.77;9.30;;;15.70;58.40;;;;;;5003777;28;20039;-87
2022/04/24 02:01:24;;;;;;;15.20;8.73;;;15.70;58.40;;;;;;5002722;28;20038;-89
2022/04/24 02:03:50;;;;;;;13.85;9.00;;;15.80;58.40;;;;;;5020551;28;20033;-85
2022/04/24 02:06:16;;;;;;;15.23;9.27;;;15.70;58.30;;;;;;5003326;28;20045;-88
2022/04/24 02:08:42;;;;;;;13.95;9.10;;;15.70;58.30;;;;;;5019487;28;20029;-86
2022/04/24 02:11:08;;;;;;;12.23;8.73;;;15.70;58.40;;;;;;5052628;28;20029;-86
2022/04/24 02:13:34;;;;;;;13.98;9.07;;;15.70;58.30;;;;;;5019488;28;20038;-87
2022/04/24 02:16:01;;;;;;;15.88;10.27;;;15.70;58.40;;;;;;5036006;28;20585;-87
2022/04/24 02:18:27;;;;;;;21.88;11.93;;;15.70;58.40;;;;;;5029017;28;20036;-88
2022/04/24 02:20:52;;;;;;;24.92;13.43;;;15.70;58.50;;;;;;5036540;28;20037;-87
2022/04/24 02:23:18;;;;;;;22.58;13.05;;;15.70;58.50;;;;;;5035089;28;20090;-87
2022/04/24 02:25:44;;;;;;;20.83;13.73;;;15.70;58.60;;;;;;5019869;28;20051;-86
2022/04/24 02:28:11;;;;;;;29.15;15.23;;;15.60;58.60;;;;;;5007946;28;20078;-88
2022/04/24 02:30:37;;;;;;;26.17;14.93;;;15.70;58.60;;;;;;5037044;28;20099;-87
2022/04/24 02:33:03;;;;;;;27.27;15.60;;;15.60;58.60;;;;;;5034798;28;20120;-89
2022/04/24 02:35:30;;;;;;;25.73;16.88;;;15.60;58.50;;;;;;5024645;28;20036;-86
2022/04/24 02:37:56;;;;;;;28.40;16.83;;;15.60;58.50;;;;;;5020222;28;20091;-87
2022/04/24 02:40:22;;;;;;;25.58;16.73;;;15.60;58.50;;;;;;5051941;28;20033;-86
2022/04/24 02:42:51;;;;;;;29.17;17.75;;;15.60;58.60;;;;;;5020415;28;20029;-87
2022/04/24 02:45:18;;;;;;;26.88;17.45;;;15.60;58.60;;;;;;5025145;28;20040;-86
2022/04/24 02:47:45;;;;;;;23.98;15.38;;;15.60;58.60;;;;;;5041514;28;20045;-85
2022/04/24 02:50:11;;;;;;;25.83;16.38;;;15.60;58.60;;;;;;5075986;28;20415;-87
2022/04/24 02:52:48;;;;;;;23.45;14.93;;;15.60;58.60;;;;;;5022035;28;20041;-86
2022/04/24 02:55:15;;;;;;;23.73;15.55;;;15.60;58.70;;;;;;5037103;28;20047;-87
2022/04/24 02:57:41;;;;;;;23.30;14.65;;;15.60;58.70;;;;;;5005094;28;20026;-86
2022/04/24 03:00:08;;;;;;;17.92;12.48;;;15.60;58.70;;;;;;5060294;28;20055;-87
2022/04/24 03:02:42;;;;;;;19.38;12.65;;;15.60;58.80;;;;;;5024762;28;20115;-88
2022/04/24 03:05:13;;;;;;;17.27;11.85;;;15.60;58.80;;;;;;5036208;28;20108;-86
2022/04/24 03:07:39;;;;;;;16.42;11.43;;;15.60;58.70;;;;;;5035131;28;20044;-87
2022/04/24 03:10:05;;;;;;;18.35;11.13;;;15.60;58.70;;;;;;5019637;28;20037;-93
2022/04/24 03:12:31;;;;;;;16.58;10.80;;;15.60;58.70;;;;;;5055003;28;20132;-92
2022/04/24 03:14:57;;;;;;;16.95;10.82;;;15.60;58.70;;;;;;5020675;28;20047;-91
2022/04/24 03:17:23;;;;;;;15.27;10.88;;;15.60;58.60;;;;;;5019779;28;20033;-93
2022/04/24 03:19:49;;;;;;;14.98;9.55;;;15.60;58.70;;;;;;5004246;28;20512;-92
2022/04/24 03:22:15;;;;;;;15.30;9.98;;;15.60;58.70;;;;;;5003623;28;20128;-91
2022/04/24 03:24:41;;;;;;;16.85;10.40;;;15.60;58.70;;;;;;5019916;28;20760;-87
2022/04/24 03:27:07;;;;;;;17.30;10.43;;;15.60;58.70;;;;;;5039164;28;20033;-95
2022/04/24 03:29:33;;;;;;;18.95;10.63;;;15.50;58.70;;;;;;5023997;28;20030;-95
2022/04/24 03:32:08;;;;;;;15.60;9.85;;;15.50;58.70;;;;;;5042062;28;20033;-95
2022/04/24 03:34:37;;;;;;;15.77;10.43;;;15.50;58.80;;;;;;5074091;28;20041;-96
2022/04/24 03:37:05;;;;;;;13.50;9.75;;;15.60;58.80;;;;;;5045332;28;20037;-96
2022/04/24 03:39:31;;;;;;;16.27;10.00;;;15.50;58.70;;;;;;5038353;28;20458;-96
2022/04/24 03:41:58;;;;;;;20.45;10.75;;;15.60;58.70;;;;;;5030116;28;20028;-94
2022/04/24 03:44:24;;;;;;;10.73;8.90;;;15.50;58.70;;;;;;5024877;28;20033;-95
2022/04/24 03:46:50;;;;;;;19.58;10.75;;;15.50;58.70;;;;;;5030405;28;20052;-94
2022/04/24 03:49:16;;;;;;;14.88;10.60;;;15.50;58.70;;;;;;5048662;28;20116;-96
2022/04/24 03:51:43;;;;;;;15.95;9.73;;;15.50;58.80;;;;;;5030107;28;20106;-88
2022/04/24 03:54:09;;;;;;;18.35;11.30;;;15.50;58.80;;;;;;5052535;28;20077;-80
2022/04/24 03:56:35;;;;;;;15.40;10.63;;;15.50;58.80;;;;;;5048620;28;20041;-87
2022/04/24 03:59:01;;;;;;;19.45;11.35;;;15.50;58.90;;;;;;5048826;28;20029;-84
2022/04/24 04:01:27;;;;;;;17.63;11.40;;;15.50;58.90;;;;;;5027033;28;20053;-94
2022/04/24 04:03:56;;;;;;;19.60;10.32;;;15.50;58.80;;;;;;5027182;28;20099;-93
2022/04/24 04:06:21;;;;;;;19.02;11.35;;;15.50;58.90;;;;;;5024185;28;20060;-87
2022/04/24 04:08:47;;;;;;;17.83;11.00;;;15.50;58.90;;;;;;5023927;28;20504;-94
2022/04/24 04:11:13;;;;;;;17.23;10.82;;;15.50;58.80;;;;;;5041096;28;20522;-94
2022/04/24 04:13:39;;;;;;;18.45;11.60;;;15.50;58.80;;;;;;5038959;28;20040;-93
2022/04/24 04:16:05;;;;;;;19.67;11.43;;;15.50;58.90;;;;;;5055222;28;20025;-87
2022/04/24 04:18:31;;;;;;;16.67;11.27;;;15.50;58.80;;;;;;5022891;28;20037;-91
2022/04/24 04:20:57;;;;;;;19.63;12.40;;;15.50;58.80;;;;;;5057510;28;20051;-89
2022/04/24 04:23:23;;;;;;;18.00;11.68;;;15.50;58.90;;;;;;5063711;28;20033;-89
2022/04/24 04:25:49;;;;;;;20.90;12.00;;;15.50;58.90;;;;;;5041481;28;20463;-91
2022/04/24 04:28:15;;;;;;;19.80;12.50;;;15.50;58.90;;;;;;5029625;28;20232;-91
2022/04/24 04:30:41;;;;;;;18.17;12.82;;;15.50;58.90;;;;;;5044099;28;20060;-90
2022/04/24 04:33:09;;;;;;;18.95;12.90;;;15.50;59.00;;;;;;5064623;28;20052;-89
2022/04/24 04:35:36;;;;;;;19.42;13.48;;;15.50;59.00;;;;;;5050335;28;20504;-89
2022/04/24 04:38:02;;;;;;;20.08;12.75;;;15.50;58.90;;;;;;5041415;28;20090;-86
2022/04/24 04:40:30;;;;;;;21.73;13.48;;;15.50;58.90;;;;;;5015000;28;20095;-80
2022/04/24 04:42:57;;;;;;;17.42;13.20;;;15.50;58.90;;;;;;5038596;28;20029;-79
2022/04/24 04:45:24;;;;;;;20.15;13.27;;;15.50;58.90;;;;;;5036957;28;20443;-79
2022/04/24 04:47:51;;;;;;;21.58;14.27;;;15.50;58.90;;;;;;5038490;28;20061;-79
2022/04/24 04:50:18;;;;;;;19.50;14.35;;;15.50;58.90;;;;;;5037268;28;20038;-79
2022/04/24 04:52:44;;;;;;;21.45;14.32;;;15.50;58.90;;;;;;5054219;28;20041;-78
2022/04/24 04:55:10;;;;;;;18.48;14.60;;;15.50;58.90;;;;;;5052152;28;20034;-79
2022/04/24 04:57:36;;;;;;;21.33;14.70;;;15.50;59.00;;;;;;5044317;28;20091;-79
2022/04/24 05:00:07;;;;;;;24.13;15.25;;;15.50;59.00;;;;;;5040683;28;20077;-84
2022/04/24 05:02:40;;;;;;;18.95;13.77;;;15.50;59.00;;;;;;5009463;28;20036;-89
2022/04/24 05:05:08;;;;;;;20.05;14.60;;;15.50;59.00;;;;;;5043804;28;20061;-87
2022/04/24 05:07:35;;;;;;;18.52;14.00;;;15.50;59.00;;;;;;5013931;28;20037;-88
2022/04/24 05:10:01;;;;;;;21.85;14.05;;;15.50;58.90;;;;;;5022589;28;20071;-90
2022/04/24 05:12:30;;;;;;;19.38;14.27;;;15.60;58.90;;;;;;5056542;28;20033;-90
2022/04/24 05:15:04;;;;;;;21.15;13.73;;;15.50;58.90;;;;;;5036362;28;20583;-90
2022/04/24 05:17:31;;;;;;;24.73;13.63;;;15.50;58.90;;;;;;5037528;28;20049;-88
2022/04/24 05:19:57;;;;;;;21.05;13.52;;;15.60;58.90;;;;;;5039510;28;20048;-89
2022/04/24 05:22:23;;;;;;;16.40;13.10;;;15.50;58.90;;;;;;5052368;28;20123;-87
2022/04/24 05:24:49;;;;;;;19.52;13.38;;;15.60;59.10;;;;;;5027094;28;20029;-84
2022/04/24 05:27:16;;;;;;;17.92;13.07;;;15.60;59.10;;;;;;5037715;28;20102;-89
2022/04/24 05:29:41;;;;;;;17.05;12.60;;;15.60;59.10;;;;;;5020601;28;20038;-83
2022/04/24 05:32:08;;;;;;;15.70;11.60;;;15.60;59.10;;;;;;5053148;28;20590;-81
2022/04/24 05:34:34;;;;;;;17.15;12.18;;;15.60;59.00;;;;;;5020125;28;20037;-81
2022/04/24 05:37:00;;;;;;;18.02;11.38;;;15.60;59.10;;;;;;5054931;28;20553;-82
2022/04/24 05:39:26;;;;;;;16.50;10.98;;;15.60;59.10;;;;;;5052929;28;20437;-83
2022/04/24 05:41:52;;;;;;;13.85;11.15;;;15.60;59.10;;;;;;5021111;28;20587;-82
2022/04/24 05:44:18;;;;;;;14.95;10.77;;;15.60;59.10;;;;;;5036799;28;20139;-80
2022/04/24 05:46:43;;;;;;;18.42;11.10;;;15.60;59.00;;;;;;5039429;28;20064;-83
2022/04/24 05:49:09;;;;;;;16.77;10.90;;;15.60;59.00;;;;;;5037049;28;20040;-91
2022/04/24 05:51:35;;;;;;;13.90;10.43;;;15.60;58.90;;;;;;5026333;28;20033;-93
2022/04/24 05:54:01;;;;;;;18.88;10.68;;;15.60;58.80;;;;;;5025852;28;20924;-90
2022/04/24 05:56:27;;;;;;;12.60;9.90;;;15.60;58.80;;;;;;5021004;28;20021;-88
2022/04/24 05:58:53;;;;;;;16.95;10.13;;;15.60;58.90;;;;;;5060681;28;20055;-87
2022/04/24 06:01:19;;;;;;;13.48;10.32;;;15.60;58.90;;;;;;5043330;28;20031;-87
2022/04/24 06:03:45;;;;;;;17.35;10.20;;;15.60;59.00;;;;;;5022928;28;20021;-89
2022/04/24 06:06:11;;;;;;;14.43;9.98;;;15.60;59.00;;;;;;5019443;28;20072;-87
2022/04/24 06:08:37;;;;;;;13.77;9.43;;;15.60;59.00;;;;;;5033435;28;20133;-87
2022/04/24 06:11:03;;;;;;;16.25;10.50;;;15.60;59.00;;;;;;5017842;28;20045;-82
2022/04/24 06:13:29;;;;;;;17.17;10.07;;;15.60;59.00;;;;;;5035087;28;20067;-88
2022/04/24 06:15:57;;;;;;;17.25;10.43;;;15.60;58.90;;;;;;5024105;28;20111;-84
2022/04/24 06:18:27;;;;;;;14.65;9.57;;;15.60;58.90;;;;;;5001920;28;20427;-84
2022/04/24 06:20:54;;;;;;;14.25;9.65;;;15.70;59.00;;;;;;5025091;28;20037;-83
2022/04/24 06:23:20;;;;;;;12.40;8.95;;;15.60;58.90;;;;;;5019354;28;20449;-85
2022/04/24 06:25:46;;;;;;;13.13;9.40;;;15.70;59.00;;;;;;5036072;28;20049;-84
2022/04/24 06:28:12;;;;;;;12.30;8.70;;;15.70;59.00;;;;;;5019050;28;20052;-84
2022/04/24 06:30:41;;;;;;;13.02;8.73;;;15.70;59.00;;;;;;5017894;28;20131;-90
2022/04/24 06:33:08;;;;;;;11.50;8.77;;;15.70;58.90;;;;;;5037068;28;20038;-87
2022/04/24 06:35:34;;;;;;;12.73;8.32;;;15.70;58.90;;;;;;5035969;28;20141;-92
2022/04/24 06:38:01;;;;;;;12.23;8.57;;;15.70;58.90;;;;;;5019671;28;20140;-83
2022/04/24 06:40:27;;;;;;;11.95;8.38;;;15.70;58.80;;;;;;5034941;28;20098;-83
2022/04/24 06:42:54;;;;;;;12.05;8.15;;;15.70;58.90;;;;;;5035320;28;20523;-81
2022/04/24 06:45:31;;;;;;;14.80;7.90;;;15.70;58.80;;;;;;5035259;28;20043;-84
2022/04/24 06:48:04;;;;;;;14.93;6.93;;;15.80;59.20;;;;;;5050588;28;20119;-80
2022/04/24 06:50:31;;;;;;;11.52;7.20;;;15.90;65.80;;;;;;5035323;28;20044;-82
2022/04/24 06:53:02;;;;;;;12.55;7.30;;;16.00;65.90;;;;;;5036525;28;20116;-82
2022/04/24 06:55:29;;;;;;;16.73;8.18;;;16.10;64.10;;;;;;5035841;28;20033;-81
2022/04/24 06:57:55;;;;;;;16.23;7.72;;;16.10;62.70;;;;;;5034569;28;20033;-81
2022/04/24 07:00:22;;;;;;;15.70;6.93;;;16.10;61.50;;;;;;5038040;28;20033;-81
2022/04/24 07:02:48;;;;;;;12.93;7.78;;;16.10;60.80;;;;;;5043148;28;20063;-81
2022/04/24 07:05:15;;;;;;;10.52;7.10;;;16.10;60.30;;;;;;5038485;28;20049;-82
2022/04/24 07:07:41;;;;;;;12.50;7.28;;;16.10;59.90;;;;;;5041835;28;20044;-83
2022/04/24 07:10:08;;;;;;;9.45;6.47;;;16.10;59.60;;;;;;5034630;28;20056;-84
2022/04/24 07:12:48;;;;;;;11.85;6.53;;;16.10;59.30;;;;;;5036440;28;20045;-83
2022/04/24 07:15:15;;;;;;;10.70;7.10;;;16.10;59.10;;;;;;5037052;28;20508;-82
2022/04/24 07:17:42;;;;;;;9.80;6.63;;;16.10;59.00;;;;;;5018635;28;20076;-84
2022/04/24 07:20:12;;;;;;;12.05;6.63;;;16.20;59.00;;;;;;5018274;28;20037;-83
2022/04/24 07:23:01;;;;;;;13.25;6.65;;;16.20;62.00;;;;;;5035577;28;20036;-85
2022/04/24 07:25:31;;;;;;;16.77;7.07;;;16.30;66.20;;;;;;5033459;28;20049;-85
2022/04/24 07:27:58;;;;;;;21.55;7.53;;;16.40;63.70;;;;;;5068109;28;20538;-85
2022/04/24 07:30:24;;;;;;;13.43;6.63;;;16.40;61.90;;;;;;5017927;28;20060;-84
2022/04/24 07:32:56;;;;;;;19.25;7.13;;;16.30;60.90;;;;;;5020161;28;20099;-84
2022/04/24 07:35:27;;;;;;;15.88;7.22;;;16.30;60.30;;;;;;4998776;28;20041;-83
2022/04/24 07:37:53;;;;;;;19.30;7.45;;;16.30;59.80;;;;;;5005246;28;20604;-83
2022/04/24 07:40:21;;;;;;;11.57;6.90;;;16.30;59.60;;;;;;5052168;28;20068;-84
2022/04/24 07:42:49;;;;;;;14.07;7.10;;;16.30;59.50;;;;;;5022629;28;20032;-84
2022/04/24 07:45:32;;;;;;;14.10;7.15;;;16.30;59.20;;;;;;5036464;28;20033;-83
2022/04/24 07:47:59;;;;;;;14.02;7.55;;;16.30;59.20;;;;;;5035496;28;20435;-86
2022/04/24 07:50:27;;;;;;;11.95;6.63;;;16.30;59.00;;;;;;5001766;28;20504;-85
2022/04/24 07:52:54;;;;;;;22.30;7.40;;;16.30;58.90;;;;;;5037289;28;20101;-87
2022/04/24 07:55:24;;;;;;;9.85;6.38;;;16.30;58.80;;;;;;5032699;28;20034;-85
2022/04/24 07:57:53;;;;;;;14.77;6.25;;;16.30;58.70;;;;;;5068571;28;20043;-83
2022/04/24 08:00:21;;;;;;;11.75;6.70;;;16.30;58.50;;;;;;5036798;28;20818;-87
2022/04/24 08:02:48;;;;;;;16.77;7.03;;;16.30;58.40;;;;;;5021287;28;20067;-83
2022/04/24 08:05:34;;;;;;;14.20;7.35;;;16.30;58.10;;;;;;5019514;28;20072;-84
2022/04/24 08:08:01;;;;;;;;;;;16.40;58.10;;;;;;5038705;28;20036;-84
2022/04/24 08:10:29;;;;;;;14.00;7.25;;;16.30;57.90;;;;;;5041502;28;19927;-87
2022/04/24 08:12:55;;;;;;;15.23;6.82;;;16.40;57.70;;;;;;5023028;28;20025;-87
2022/04/24 08:15:22;;;;;;;14.80;6.80;;;16.40;57.60;;;;;;5039387;28;20573;-85
2022/04/24 08:17:48;;;;;;;14.60;6.75;;;16.40;57.40;;;;;;5039710;28;20412;-84
2022/04/24 08:20:16;;;;;;;17.15;6.63;;;16.40;57.50;;;;;;5038768;28;20037;-85
2022/04/24 08:22:44;;;;;;;13.10;6.85;;;16.40;57.60;;;;;;5040239;28;20032;-88
2022/04/24 08:25:12;;;;;;;14.32;6.72;;;16.40;57.30;;;;;;5062937;28;20037;-84
2022/04/24 08:27:39;;;;;;;13.85;7.13;;;16.40;57.30;;;;;;5037967;28;20025;-85
2022/04/24 08:30:07;;;;;;;17.15;6.47;;;16.50;57.30;;;;;;5002388;28;20090;-85
2022/04/24 08:32:33;;;;;;;17.20;7.55;;;16.50;57.40;;;;;;5017023;28;20084;-86
2022/04/24 08:35:00;;;;;;;10.45;6.65;;;16.50;57.20;;;;;;5036084;28;20431;-85
2022/04/24 08:37:27;;;;;;;15.38;6.93;;;16.50;57.10;;;;;;5004871;28;20057;-88
2022/04/24 08:39:53;;;;;;;10.63;6.82;;;16.50;56.70;;;;;;5038396;28;20029;-87
2022/04/24 08:42:21;;;;;;;12.02;6.90;;;16.60;56.70;;;;;;5039026;28;20041;-85
2022/04/24 08:44:51;;;;;;;15.45;7.18;;;16.60;56.70;;;;;;5037932;28;20043;-85
2022/04/24 08:47:19;;;;;;;12.10;6.78;;;16.60;56.40;;;;;;5046081;28;20116;-86
2022/04/24 08:50:04;;;;;;;18.20;7.57;;;16.70;56.40;;;;;;5023981;28;20681;-84
2022/04/24 08:52:31;;;;;;;11.80;6.80;;;16.70;56.30;;;;;;5021230;28;20400;-88
2022/04/24 08:54:58;;;;;;;14.27;6.95;;;16.70;56.00;;;;;;5040767;28;20411;-84
2022/04/24 08:57:30;;;;;;;12.85;6.45;;;16.80;56.20;;;;;;5024077;28;20029;-85
2022/04/24 08:59:58;;;;;;;12.15;6.63;;;16.80;56.80;;;;;;5038631;28;20056;-85
2022/04/24 09:02:24;;;;;;;10.35;6.93;;;16.80;56.20;;;;;;5019617;28;20037;-86
2022/04/24 09:04:54;;;;;;;9.32;6.43;;;16.90;56.20;;;;;;5026322;28;20037;-86
2022/04/24 09:07:21;;;;;;;12.70;6.35;;;16.90;56.10;;;;;;5038772;28;20468;-87
2022/04/24 09:09:49;;;;;;;15.05;6.97;;;17.00;55.90;;;;;;5046417;28;20483;-85
2022/04/24 09:12:16;;;;;;;12.57;6.95;;;17.00;55.90;;;;;;5017063;28;20057;-87
2022/04/24 09:14:50;;;;;;;12.77;7.00;;;17.00;56.00;;;;;;5049858;28;21739;-87
2022/04/24 09:17:27;;;;;;;15.50;6.68;;;17.10;55.90;;;;;;5046262;28;20041;-85
2022/04/24 09:19:54;;;;;;;9.93;7.10;;;17.10;55.80;;;;;;5040598;28;20515;-86
2022/04/24 09:22:22;;;;;;;12.05;7.00;;;17.10;55.60;;;;;;5038437;28;20021;-88
2022/04/24 09:24:56;;;;;;;10.45;7.40;;;17.20;55.30;;;;;;4995613;28;20619;-87
2022/04/24 09:27:32;;;;;;;11.15;6.88;;;17.20;55.20;;;;;;5051836;28;20033;-89
2022/04/24 09:30:00;;;;;;;;;;;17.20;55.20;;;;;;5035215;28;20033;-89
2022/04/24 09:32:28;;;;;;;11.25;6.75;;;17.30;55.20;;;;;;5040062;28;19994;-88
2022/04/24 09:34:55;;;;;;;10.32;7.32;;;17.30;54.90;;;;;;5027883;28;20037;-89
2022/04/24 09:37:21;;;;;;;12.68;7.35;;;17.30;54.90;;;;;;5021580;28;20444;-86
2022/04/24 09:39:49;;;;;;;9.43;6.20;;;17.30;54.40;;;;;;5046591;28;20445;-85
2022/04/24 09:42:17;;;;;;;10.45;6.40;;;17.40;54.20;;;;;;5007315;28;20045;-87
2022/04/24 09:44:47;;;;;;;14.07;6.28;;;17.40;54.50;;;;;;5051910;28;20120;-92
2022/04/24 09:47:16;;;;;;;9.57;6.13;;;17.40;54.80;;;;;;5021390;28;20545;-93
2022/04/24 09:49:49;;;;;;;9.13;6.18;;;17.30;54.10;;;;;;5033836;28;20045;-95
2022/04/24 09:52:24;;;;;;;10.27;6.07;;;17.40;54.30;;;;;;5038567;28;20088;-95
2022/04/24 09:54:52;;;;;;;9.02;5.70;;;17.40;54.20;;;;;;5043068;28;20039;-90
2022/04/24 09:57:21;;;;;;;9.93;6.18;;;17.50;54.10;;;;;;5039695;28;20042;-95
2022/04/24 09:59:48;;;;;;;8.63;5.40;;;17.50;54.00;;;;;;4997310;28;20057;-95
2022/04/24 10:02:18;;;;;;;8.93;5.88;;;17.50;53.90;;;;;;5016927;28;20033;-94
2022/04/24 10:04:46;;;;;;;11.85;5.35;;;17.60;53.80;;;;;;5043795;28;20048;-79
2022/04/24 10:07:16;;;;;;;8.23;5.40;;;17.60;53.80;;;;;;5051590;28;20033;-84
2022/04/24 10:09:44;;;;;;;12.05;6.05;;;17.70;55.50;;;;;;5045164;28;20459;-84
2022/04/24 10:12:19;;;;;;;9.82;5.75;;;17.70;55.00;;;;;;5024968;28;20030;-89
2022/04/24 10:15:01;;;;;;;12.43;5.07;;;17.70;54.70;;;;;;5005675;28;20132;-88
2022/04/24 10:18:09;;;;;;;7.43;5.40;;;17.70;54.50;;;;;;5093815;28;20036;-84
2022/04/24 10:21:08;;;;;;;9.77;5.28;;;17.70;54.30;;;;;;5026339;28;20056;-83
2022/04/24 10:23:37;;;;;;;10.40;5.95;;;17.80;54.10;;;;;;5032104;28;20081;-87
2022/04/24 10:26:20;;;;;;;9.40;5.70;;;17.80;53.90;;;;;;5014941;28;20049;-88
2022/04/24 10:28:47;;;;;;;7.70;5.15;;;17.80;53.80;;;;;;5035212;28;20116;-87
2022/04/24 10:31:15;;;;;;;7.25;4.93;;;17.90;53.70;;;;;;5014464;28;20042;-86
2022/04/24 10:33:53;;;;;;;7.05;5.00;;;17.90;53.90;;;;;;5013918;28;20033;-85
2022/04/24 10:36:20;;;;;;;13.10;5.53;;;17.80;54.40;;;;;;4973305;28;20088;-84
2022/04/24 10:39:16;;;;;;;11.35;5.13;;;17.90;54.60;;;;;;4996979;28;20796;-85
2022/04/24 10:42:00;;;;;;;8.77;4.00;;;17.80;54.70;;;;;;5014582;28;20374;-85
2022/04/24 10:44:27;;;;;;;7.60;4.78;;;17.80;54.70;;;;;;5013838;28;20401;-85
2022/04/24 10:46:57;;;;;;;11.43;4.72;;;17.90;54.80;;;;;;5003816;28;20495;-87
2022/04/24 10:49:25;;;;;;;10.52;4.65;;;17.90;54.80;;;;;;5012847;28;20136;-85
2022/04/24 10:52:00;;;;;;;7.30;4.78;;;17.90;54.60;;;;;;5013707;28;20541;-85
2022/04/24 10:54:36;;;;;;;9.05;4.82;;;17.90;54.70;;;;;;5012977;28;20157;-88
2022/04/24 10:57:18;;;;;;;9.15;4.93;;;17.90;54.40;;;;;;5023656;28;20033;-86
2022/04/24 10:59:51;;;;;;;10.48;4.95;;;17.90;54.60;;;;;;5052493;28;20089;-84
2022/04/24 11:02:22;;;;;;;7.13;4.40;;;17.90;54.80;;;;;;5034455;28;20415;-86
2022/04/24 11:05:07;;;;;;;8.95;5.25;;;17.90;54.50;;;;;;5019592;28;20040;-87
2022/04/24 11:07:33;;;;;;;7.28;4.80;;;17.90;54.60;;;;;;5027534;28;20056;-85
2022/04/24 11:10:10;;;;;;;7.82;5.15;;;17.90;54.50;;;;;;5035423;28;20044;-85
2022/04/24 11:12:37;;;;;;;5.05;4.55;;;17.90;54.40;;;;;;5034843;28;20061;-87
2022/04/24 11:15:09;;;;;;;7.07;4.72;;;17.90;54.50;;;;;;5020090;28;20087;-84
2022/04/24 11:17:36;;;;;;;6.57;4.57;;;17.90;54.50;;;;;;5036907;28;20041;-86
2022/04/24 11:20:08;;;;;;;7.55;5.10;;;17.90;55.00;;;;;;5025195;28;20029;-87
2022/04/24 11:22:53;;;;;;;9.95;4.90;;;17.80;55.40;;;;;;5057621;28;20040;-82
2022/04/24 11:25:24;;;;;;;8.85;5.00;;;17.90;55.90;;;;;;5031327;28;20056;-84
2022/04/24 11:27:52;;;;;;;7.07;4.70;;;17.90;56.10;;;;;;5061423;28;20013;-88
2022/04/24 11:30:20;;;;;;;7.00;5.20;;;17.90;56.10;;;;;;5040893;28;20542;-89
2022/04/24 11:33:04;;;;;;;9.38;4.93;;;17.90;56.10;;;;;;5041202;28;20117;-87
2022/04/24 11:35:31;;;;;;;9.88;5.10;;;18.00;56.30;;;;;;5069281;28;20037;-86
2022/04/24 11:37:57;;;;;;;9.75;5.78;;;18.00;56.30;;;;;;5038456;28;20045;-85
2022/04/24 11:40:24;;;;;;;10.25;5.40;;;18.00;56.40;;;;;;5035852;28;20048;-83
2022/04/24 11:42:50;;;;;;;7.50;5.20;;;18.00;56.40;;;;;;5034292;28;20029;-87
2022/04/24 11:50:51;;;;;;;;;;;18.00;56.70;;;;;;5043169;28;20430;-89
2022/04/24 11:53:25;;;;;;;9.57;5.68;;;18.00;56.90;;;;;;5056169;28;19921;-92
2022/04/24 11:56:01;;;;;;;10.45;4.95;;;18.00;56.80;;;;;;5931068;22;20160;-83
2022/04/24 12:01:36;;;;;;;7.68;5.97;;;18.00;57.10;;;;;;4985998;23;20140;-84
2022/04/24 12:04:04;;;;;;;8.48;5.85;;;18.00;58.30;;;;;;4891569;29;20364;-82
2022/04/24 12:06:33;;;;;;;10.77;6.63;;;17.90;59.00;;;;;;4876286;29;20033;-81
2022/04/24 12:09:10;;;;;;;10.07;6.88;;;17.90;59.80;;;;;;4875020;29;20032;-80
2022/04/24 12:11:36;;;;;;;10.40;7.20;;;17.90;60.20;;;;;;4887872;29;20040;-82
2022/04/24 12:14:08;;;;;;;7.30;6.55;;;17.80;61.10;;;;;;4869358;29;20028;-81
2022/04/24 12:16:35;;;;;;;9.32;6.88;;;17.80;61.30;;;;;;4872736;29;20068;-82
2022/04/24 12:19:01;;;;;;;7.85;6.97;;;17.80;61.70;;;;;;4887858;29;20377;-80
2022/04/24 12:21:28;;;;;;;9.07;7.47;;;17.70;62.00;;;;;;4870135;29;20121;-81
2022/04/24 12:23:55;;;;;;;9.32;7.30;;;17.70;62.60;;;;;;4853218;29;20034;-81
2022/04/24 12:26:22;;;;;;;9.68;7.20;;;17.70;62.70;;;;;;4871167;29;20048;-81
2022/04/24 12:28:48;;;;;;;10.65;7.55;;;17.70;63.20;;;;;;4877864;29;20476;-81
2022/04/24 12:31:26;;;;;;;8.25;7.45;;;17.70;63.40;;;;;;4878806;29;20048;-79
2022/04/24 12:33:55;;;;;;;10.45;7.47;;;17.60;63.70;;;;;;4881685;29;20116;-82
2022/04/24 12:36:22;;;;;;;8.38;7.53;;;17.60;64.00;;;;;;4869251;29;20036;-81
2022/04/24 12:38:59;;;;;;;8.68;7.63;;;17.60;64.00;;;;;;4867912;29;20117;-80
2022/04/24 12:41:27;;;;;;;8.77;7.88;;;17.60;64.30;;;;;;4869454;29;20041;-80
2022/04/24 12:43:57;;;;;;;8.73;7.40;;;17.60;64.30;;;;;;4867645;29;20038;-85
2022/04/24 12:46:23;;;;;;;10.35;7.57;;;17.60;64.40;;;;;;4858068;29;20056;-81
2022/04/24 12:48:51;;;;;;;8.88;7.90;;;17.60;64.40;;;;;;4875934;29;20480;-82
2022/04/24 12:51:20;;;;;;;8.00;7.28;;;17.60;64.50;;;;;;4875623;29;20044;-81